Time;durP1;ratioP1;P1;durP2;ratioP2;P2;SDS_P1;SDS_P2;PMS_P1;PMS_P2;Temp;Humidity;BMP_temperature;BMP_pressure;BME280_temperature;BME280_humidity;BME280_pressure;Samples;Min_cycle;Max_cycle;Signal;HPM_P1;HPM_P2
2023/08/22 00:01:41;;;;;;;;;;;;;;;30.32;41.92;94678.66;5010144;28;8806;-61
2023/08/22 00:04:07;;;;;;;;;;;;;;;30.32;42.35;94675.88;5018676;28;7061;-57
2023/08/22 00:06:34;;;;;;;;;;;;;;;30.31;42.00;94679.22;5007190;28;9081;-57
2023/08/22 00:09:04;;;;;;;;;;;;;;;30.31;42.91;94677.19;5005815;28;7097;-57
2023/08/22 00:11:33;;;;;;;;;;;;;;;30.32;43.01;94675.16;5043654;28;7260;-57
2023/08/22 00:14:10;;;;;;;;;;;;;;;30.31;42.49;94673.66;5023856;28;9054;-57
2023/08/22 00:16:47;;;;;;;;;;;;;;;30.30;42.27;94674.91;5016077;28;7202;-57
2023/08/22 00:19:22;;;;;;;;;;;;;;;30.28;43.10;94681.00;5014782;28;7293;-57
2023/08/22 00:21:49;;;;;;;;;;;;;;;30.27;42.32;94668.41;5007938;28;8860;-57
2023/08/22 00:24:15;;;;;;;;;;;;;;;30.26;42.79;94678.00;5003870;28;7100;-57
2023/08/22 00:26:47;;;;;;;;;;;;;;;30.22;42.89;94677.59;5029945;28;7309;-57
2023/08/22 00:29:16;;;;;;;;;;;;;;;30.18;42.07;94663.28;5011683;28;9059;-57
2023/08/22 00:31:54;;;;;;;;;;;;;;;30.17;42.67;94659.00;5007243;28;7199;-57
2023/08/22 00:34:22;;;;;;;;;;;;;;;30.17;42.95;94663.81;5039504;28;7811;-57
2023/08/22 00:37:06;;;;;;;;;;;;;;;30.21;42.40;94669.81;4999849;28;9364;-57
2023/08/22 00:39:38;;;;;;;;;;;;;;;30.23;42.70;94670.75;5013968;28;7285;-57
2023/08/22 00:42:32;;;;;;;;;;;;;;;30.24;42.76;94671.50;5011222;28;7261;-57
2023/08/22 00:45:02;;;;;;;;;;;;;;;30.19;42.82;94670.31;5023414;28;9094;-57
2023/08/22 00:47:30;;;;;;;;;;;;;;;30.19;42.87;94672.38;5018910;28;8894;-57
2023/08/22 00:49:56;;;;;;;;;;;;;;;30.17;42.23;94672.88;5031958;28;7439;-57
2023/08/22 00:52:22;;;;;;;;;;;;;;;30.19;41.95;94667.56;5012925;28;7408;-57
2023/08/22 00:54:56;;;;;;;;;;;;;;;30.19;41.84;94664.06;5013886;28;6977;-57
2023/08/22 00:57:23;;;;;;;;;;;;;;;30.20;42.25;94669.06;5012630;28;8747;-57
2023/08/22 00:59:50;;;;;;;;;;;;;;;30.17;41.90;94672.88;5006035;28;9178;-57
2023/08/22 01:02:17;;;;;;;;;;;;;;;30.15;42.52;94667.13;4997869;28;8002;-57
2023/08/22 01:04:49;;;;;;;;;;;;;;;30.15;41.81;94667.13;5001031;28;7226;-57
2023/08/22 01:07:31;;;;;;;;;;;;;;;30.15;42.08;94667.13;5009182;28;7009;-57
2023/08/22 01:10:04;;;;;;;;;;;;;;;30.12;41.80;94675.78;5012766;28;9484;-57
2023/08/22 01:12:49;;;;;;;;;;;;;;;30.12;42.09;94665.44;5013501;28;7402;-57
2023/08/22 01:15:34;;;;;;;;;;;;;;;30.12;42.16;94654.34;5023736;28;7352;-61
2023/08/22 01:18:15;;;;;;;;;;;;;;;30.15;42.67;94664.34;5003195;28;7226;-61
2023/08/22 01:21:19;;;;;;;;;;;;;;;30.13;41.71;94658.59;5009997;28;6995;-61
2023/08/22 01:23:49;;;;;;;;;;;;;;;30.09;41.73;94663.72;5007218;28;7801;-61
2023/08/22 01:26:23;;;;;;;;;;;;;;;30.07;41.87;94666.28;5022223;28;7242;-61
2023/08/22 01:28:59;;;;;;;;;;;;;;;30.05;41.55;94659.78;5007007;28;7505;-61
2023/08/22 01:32:17;;;;;;;;;;;;;;;30.04;41.70;94667.34;5024344;28;6957;-61
2023/08/22 01:34:51;;;;;;;;;;;;;;;29.99;41.78;94659.16;4982798;28;9226;-61
2023/08/22 01:37:36;;;;;;;;;;;;;;;30.01;41.88;94660.09;4986082;28;9181;-61
2023/08/22 01:40:07;;;;;;;;;;;;;;;30.00;41.87;94666.94;4980118;28;7525;-61
2023/08/22 01:42:34;;;;;;;;;;;;;;;30.01;41.92;94664.91;4983460;28;7004;-61
2023/08/22 01:45:00;;;;;;;;;;;;;;;30.02;41.64;94669.16;4991039;28;8781;-61
2023/08/22 01:47:30;;;;;;;;;;;;;;;30.01;42.22;94662.88;4969010;28;8845;-61
2023/08/22 01:50:42;;;;;;;;;;;;;;;30.03;41.68;94665.88;4990300;28;7892;-61
2023/08/22 01:53:10;;;;;;;;;;;;;;;29.99;41.63;94659.16;4952245;28;9166;-61
2023/08/22 01:55:55;;;;;;;;;;;;;;;29.99;41.98;94657.13;4952750;28;9103;-61
2023/08/22 01:58:29;;;;;;;;;;;;;;;30.00;42.67;94666.16;4952346;28;9340;-61
2023/08/22 02:00:57;;;;;;;;;;;;;;;29.97;42.39;94661.72;4934199;28;7261;-60
2023/08/22 02:03:32;;;;;;;;;;;;;;;29.97;42.39;94667.97;4947426;28;7993;-61
2023/08/22 02:06:14;;;;;;;;;;;;;;;29.96;42.24;94666.50;4950204;28;9425;-62
2023/08/22 02:08:43;;;;;;;;;;;;;;;29.95;42.21;94664.28;4935304;28;7226;-61
2023/08/22 02:11:23;;;;;;;;;;;;;;;29.94;42.27;94671.84;4944919;28;7251;-61
2023/08/22 02:13:57;;;;;;;;;;;;;;;29.94;42.06;94663.50;4949163;28;8755;-61
2023/08/22 02:16:24;;;;;;;;;;;;;;;29.93;41.90;94664.06;4964536;28;7458;-61
2023/08/22 02:19:26;;;;;;;;;;;;;;;29.93;42.85;94675.16;4964754;28;7134;-61
2023/08/22 02:21:53;;;;;;;;;;;;;;;29.91;42.66;94661.03;4933456;29;6988;-61
2023/08/22 02:24:20;;;;;;;;;;;;;;;29.91;41.63;94667.34;4912857;29;9129;-63
2023/08/22 02:26:59;;;;;;;;;;;;;;;29.93;41.77;94666.84;4931531;28;7495;-63
2023/08/22 02:29:42;;;;;;;;;;;;;;;29.94;41.91;94663.50;4933278;28;9056;-63
2023/08/22 02:32:19;;;;;;;;;;;;;;;29.93;41.68;94661.28;4947054;28;9045;-63
2023/08/22 02:34:50;;;;;;;;;;;;;;;29.89;42.77;94663.59;4971385;28;7322;-63
2023/08/22 02:37:16;;;;;;;;;;;;;;;29.90;41.97;94668.63;4964949;28;7200;-63
2023/08/22 02:39:45;;;;;;;;;;;;;;;29.91;42.57;94666.59;4961223;28;7000;-63
2023/08/22 02:42:14;;;;;;;;;;;;;;;29.89;42.50;94667.13;4947487;28;7258;-63
2023/08/22 02:44:42;;;;;;;;;;;;;;;29.87;42.73;94672.47;4964130;28;8980;-63
2023/08/22 02:47:11;;;;;;;;;;;;;;;29.85;42.53;94666.72;4950070;28;7213;-63
2023/08/22 02:49:40;;;;;;;;;;;;;;;29.86;42.77;94673.75;4965268;28;6961;-63
2023/08/22 02:52:06;;;;;;;;;;;;;;;29.83;41.96;94672.03;4947434;28;7325;-63
2023/08/22 02:54:41;;;;;;;;;;;;;;;29.81;41.72;94666.28;4965548;28;8784;-63
2023/08/22 02:57:23;;;;;;;;;;;;;;;29.78;42.65;94654.22;5003746;28;7218;-63
2023/08/22 02:59:55;;;;;;;;;;;;;;;29.81;41.81;94657.97;5008541;28;9178;-63
2023/08/22 03:02:26;;;;;;;;;;;;;;;29.82;41.74;94661.50;5007742;28;7238;-63
2023/08/22 03:04:54;;;;;;;;;;;;;;;29.81;41.96;94660.75;5026664;28;7289;-63
2023/08/22 03:07:22;;;;;;;;;;;;;;;29.81;41.95;94660.75;5021065;28;9181;-63
2023/08/22 03:09:50;;;;;;;;;;;;;;;29.77;41.54;94654.78;5006180;28;6975;-63
2023/08/22 03:12:16;;;;;;;;;;;;;;;29.74;42.39;94655.81;5010011;28;9538;-63
2023/08/22 03:14:55;;;;;;;;;;;;;;;29.73;42.70;94654.31;5027878;28;6968;-63
2023/08/22 03:17:23;;;;;;;;;;;;;;;29.77;41.90;94655.53;5007031;28;9078;-63
2023/08/22 03:20:00;;;;;;;;;;;;;;;29.77;41.79;94654.78;5009114;28;7115;-63
2023/08/22 03:22:32;;;;;;;;;;;;;;;29.75;42.39;94643.47;5010721;28;8778;-63
2023/08/22 03:25:04;;;;;;;;;;;;;;;29.74;41.63;94645.50;4995576;28;9401;-63
2023/08/22 03:27:42;;;;;;;;;;;;;;;29.70;41.54;94642.25;5013908;28;7305;-63
2023/08/22 03:30:12;;;;;;;;;;;;;;;29.72;41.96;94641.72;5011065;28;8669;-63
2023/08/22 03:32:39;;;;;;;;;;;;;;;29.69;41.79;94637.22;5014897;28;9203;-63
2023/08/22 03:35:08;;;;;;;;;;;;;;;29.67;41.92;94642.56;5027179;28;8849;-62
2023/08/22 03:38:04;;;;;;;;;;;;;;;29.67;41.45;94635.00;5013726;28;9385;-62
2023/08/22 03:40:52;;;;;;;;;;;;;;;29.68;41.89;94635.75;4981057;28;7485;-61
2023/08/22 03:43:23;;;;;;;;;;;;;;;29.67;42.25;94634.25;4971820;28;7045;-62
2023/08/22 03:45:50;;;;;;;;;;;;;;;29.67;42.21;94637.75;4999267;28;9144;-61
2023/08/22 03:48:18;;;;;;;;;;;;;;;29.68;41.63;94641.28;5008554;28;7353;-62
2023/08/22 03:51:07;;;;;;;;;;;;;;;29.65;41.49;94639.56;4993573;28;6856;-61
2023/08/22 03:53:34;;;;;;;;;;;;;;;29.65;41.69;94648.66;4988042;28;8954;-61
2023/08/22 03:56:03;;;;;;;;;;;;;;;29.67;42.23;94643.31;4968665;28;9157;-61
2023/08/22 03:58:29;;;;;;;;;;;;;;;29.66;41.67;94649.41;4989977;28;7193;-61
2023/08/22 04:01:06;;;;;;;;;;;;;;;29.65;41.75;94645.13;4980779;28;7147;-62
2023/08/22 04:03:32;;;;;;;;;;;;;;;29.66;41.75;94652.16;4981113;28;9901;-61
2023/08/22 04:06:00;;;;;;;;;;;;;;;29.64;41.41;94643.63;4971277;28;7025;-62
2023/08/22 04:08:26;;;;;;;;;;;;;;;29.64;42.05;94647.16;4984715;28;8738;-61
2023/08/22 04:10:56;;;;;;;;;;;;;;;29.62;42.08;94643.44;4979843;28;9064;-61
2023/08/22 04:13:24;;;;;;;;;;;;;;;29.64;41.58;94649.19;4985184;28;7154;-61
2023/08/22 04:15:52;;;;;;;;;;;;;;;29.66;41.56;94650.16;4981799;28;8501;-61
2023/08/22 04:18:28;;;;;;;;;;;;;;;29.65;42.27;94661.75;5001694;28;7196;-61
2023/08/22 04:20:58;;;;;;;;;;;;;;;29.62;42.01;94660.06;5015517;28;7276;-61
2023/08/22 04:23:36;;;;;;;;;;;;;;;29.58;42.28;94665.91;5000153;28;7240;-61
2023/08/22 04:26:14;;;;;;;;;;;;;;;29.62;42.01;94669.09;5002853;28;7004;-61
2023/08/22 04:28:53;;;;;;;;;;;;;;;29.61;41.70;94669.63;5010432;28;7258;-61
2023/08/22 04:31:22;;;;;;;;;;;;;;;29.59;41.19;94666.66;5009343;28;9303;-61
2023/08/22 04:34:11;;;;;;;;;;;;;;;29.55;41.82;94675.28;5012215;28;7227;-61
2023/08/22 04:36:43;;;;;;;;;;;;;;;29.49;41.92;94677.41;5003810;28;9222;-60
2023/08/22 04:39:12;;;;;;;;;;;;;;;29.50;41.63;94675.38;5007532;28;9495;-61
2023/08/22 04:42:07;;;;;;;;;;;;;;;29.48;42.11;94677.94;5005161;28;6857;-61
2023/08/22 04:44:33;;;;;;;;;;;;;;;29.42;41.15;94671.75;4990152;28;7267;-61
2023/08/22 04:47:08;;;;;;;;;;;;;;;29.39;41.58;94670.03;4975587;28;7235;-61
2023/08/22 04:49:37;;;;;;;;;;;;;;;29.40;42.23;94666.75;4974993;28;7453;-61
2023/08/22 04:52:23;;;;;;;;;;;;;;;29.41;42.45;94676.53;4987170;28;7399;-61
2023/08/22 04:54:49;;;;;;;;;;;;;;;29.41;42.50;94675.78;4979427;28;8751;-61
2023/08/22 04:57:18;;;;;;;;;;;;;;;29.41;42.68;94678.56;4970375;28;7547;-62
2023/08/22 04:59:44;;;;;;;;;;;;;;;29.45;43.49;94673.47;4981725;28;8978;-60
2023/08/22 05:02:10;;;;;;;;;;;;;;;29.50;43.00;94678.16;4983510;28;7569;-61
2023/08/22 05:04:36;;;;;;;;;;;;;;;29.50;41.78;94669.84;4988360;28;7124;-61
2023/08/22 05:07:18;;;;;;;;;;;;;;;29.52;42.54;94672.81;4977686;28;7191;-61
2023/08/22 05:10:02;;;;;;;;;;;;;;;29.56;42.22;94674.00;4963112;28;9126;-61
2023/08/22 05:12:37;;;;;;;;;;;;;;;29.59;41.83;94683.28;4973787;28;9111;-60
2023/08/22 05:15:12;;;;;;;;;;;;;;;29.50;42.54;94675.38;4986689;28;7199;-61
2023/08/22 05:17:47;;;;;;;;;;;;;;;29.47;41.30;94684.78;4974534;28;7353;-61
2023/08/22 05:20:53;;;;;;;;;;;;;;;29.43;42.26;94676.75;4971359;28;9478;-61
2023/08/22 05:23:20;;;;;;;;;;;;;;;29.41;42.30;94673.75;5004583;28;9381;-61
2023/08/22 05:25:48;;;;;;;;;;;;;;;29.41;42.43;94675.78;5004838;28;7015;-60
2023/08/22 05:28:23;;;;;;;;;;;;;;;29.43;42.23;94676.75;5004653;28;7076;-61
2023/08/22 05:31:21;;;;;;;;;;;;;;;29.48;41.58;94689.03;5022099;28;7218;-61
2023/08/22 05:34:19;;;;;;;;;;;;;;;29.52;42.75;94678.38;4991321;28;7231;-61
2023/08/22 05:36:54;;;;;;;;;;;;;;;29.54;41.56;94682.09;5000521;28;7288;-61
2023/08/22 05:39:41;;;;;;;;;;;;;;;29.56;41.62;94681.56;5025780;28;8716;-61
2023/08/22 05:42:28;;;;;;;;;;;;;;;29.54;42.66;94682.09;4984166;28;7131;-61
2023/08/22 05:44:59;;;;;;;;;;;;;;;29.59;42.05;94683.28;4985013;28;8361;-61
2023/08/22 05:47:39;;;;;;;;;;;;;;;29.60;41.66;94684.78;5014061;28;8815;-61
2023/08/22 05:50:05;;;;;;;;;;;;;;;29.60;42.15;94684.78;4997838;28;8756;-61
2023/08/22 05:52:56;;;;;;;;;;;;;;;29.60;42.02;94687.56;5023914;28;6989;-62
2023/08/22 05:55:24;;;;;;;;;;;;;;;29.60;42.88;94684.78;4982859;28;7287;-61
2023/08/22 05:57:50;;;;;;;;;;;;;;;29.61;42.55;94695.34;4991779;28;9059;-61
2023/08/22 06:00:18;;;;;;;;;;;;;;;29.60;42.04;94690.34;4993027;28;7616;-61
2023/08/22 06:02:44;;;;;;;;;;;;;;;29.60;42.18;94695.88;4988115;28;9175;-61
2023/08/22 06:05:10;;;;;;;;;;;;;;;29.57;42.85;94700.47;5021647;28;8706;-61
2023/08/22 06:07:36;;;;;;;;;;;;;;;29.57;42.17;94696.94;5025689;28;9226;-61
2023/08/22 06:10:33;;;;;;;;;;;;;;;29.58;42.55;94692.91;5000769;28;9072;-61
2023/08/22 06:13:21;;;;;;;;;;;;;;;29.58;42.05;94695.66;5006837;28;7783;-61
2023/08/22 06:15:57;;;;;;;;;;;;;;;29.57;43.27;94697.69;5025378;28;7594;-61
2023/08/22 06:18:58;;;;;;;;;;;;;;;29.58;43.90;94701.94;4984608;28;7478;-61
2023/08/22 06:21:53;;;;;;;;;;;;;;;29.56;43.66;94701.72;4908885;29;9017;-62
2023/08/22 06:24:30;;;;;;;;;;;;;;;29.44;44.36;94697.66;4911446;29;7239;-61
2023/08/22 06:27:08;;;;;;;;;;;;;;;29.37;44.45;94697.50;4914559;29;7067;-61
2023/08/22 06:29:43;;;;;;;;;;;;;;;29.42;43.88;94708.53;4930538;29;7857;-61
2023/08/22 06:32:22;;;;;;;;;;;;;;;29.46;44.29;94710.97;4927175;29;7022;-61
2023/08/22 06:35:07;;;;;;;;;;;;;;;29.50;44.39;94708.63;4916650;29;9072;-61
2023/08/22 06:37:33;;;;;;;;;;;;;;;29.52;43.96;94711.63;4931936;29;7345;-61
2023/08/22 06:40:23;;;;;;;;;;;;;;;29.57;43.71;94717.09;4935959;28;7693;-61
2023/08/22 06:43:13;;;;;;;;;;;;;;;29.60;43.55;94718.06;4932187;29;9072;-62
2023/08/22 06:45:47;;;;;;;;;;;;;;;29.63;43.91;94720.50;4911737;29;7219;-63
2023/08/22 06:48:37;;;;;;;;;;;;;;;29.64;43.31;94724.03;4930162;29;9101;-62
2023/08/22 06:51:12;;;;;;;;;;;;;;;29.65;43.59;94725.50;4943127;29;7009;-62
2023/08/22 06:53:38;;;;;;;;;;;;;;;29.63;44.24;94720.50;4935734;29;7221;-62
2023/08/22 06:56:16;;;;;;;;;;;;;;;29.65;43.65;94711.66;4928001;28;7290;-62
2023/08/22 06:58:47;;;;;;;;;;;;;;;29.66;44.19;94721.47;5021561;28;8761;-62
2023/08/22 07:01:25;;;;;;;;;;;;;;;29.68;43.43;94724.47;5004609;28;7013;-62
2023/08/22 07:03:55;;;;;;;;;;;;;;;29.67;43.78;94717.41;5010667;28;9680;-62
2023/08/22 07:06:21;;;;;;;;;;;;;;;29.69;44.45;94717.63;5007984;28;9139;-66
2023/08/22 07:08:55;;;;;;;;;;;;;;;29.71;43.75;94723.41;5012666;28;7236;-65
2023/08/22 07:11:28;;;;;;;;;;;;;;;29.72;44.73;94722.13;5008147;28;7007;-66
2023/08/22 07:14:02;;;;;;;;;;;;;;;29.70;44.62;94719.88;5004480;28;7947;-65
2023/08/22 07:16:37;;;;;;;;;;;;;;;29.74;44.41;94719.59;5001975;28;7294;-65
2023/08/22 07:19:33;;;;;;;;;;;;;;;29.73;44.16;94726.41;5009812;28;9076;-65
2023/08/22 07:21:59;;;;;;;;;;;;;;;29.75;44.42;94718.31;5022685;28;7297;-65
2023/08/22 07:24:25;;;;;;;;;;;;;;;29.73;44.07;94721.59;5019150;28;8995;-65
2023/08/22 07:26:54;;;;;;;;;;;;;;;29.76;44.05;94730.91;5007269;28;9032;-65
2023/08/22 07:29:21;;;;;;;;;;;;;;;29.77;43.44;94726.88;5016396;28;7293;-65
2023/08/22 07:31:59;;;;;;;;;;;;;;;29.77;43.72;94730.38;5003814;28;9242;-65
2023/08/22 07:34:35;;;;;;;;;;;;;;;29.79;43.52;94735.41;5006895;28;7021;-65
2023/08/22 07:37:00;;;;;;;;;;;;;;;29.77;44.00;94733.16;5021523;28;7230;-65
2023/08/22 07:39:28;;;;;;;;;;;;;;;29.80;44.09;94739.66;5007718;28;7244;-65
2023/08/22 07:42:11;;;;;;;;;;;;;;;29.77;43.52;94733.16;5022471;28;7200;-66
2023/08/22 07:44:47;;;;;;;;;;;;;;;29.79;44.64;94736.16;5007159;28;9474;-66
2023/08/22 07:47:17;;;;;;;;;;;;;;;29.83;44.58;94741.38;5006651;28;7219;-65
2023/08/22 07:49:43;;;;;;;;;;;;;;;29.84;44.35;94740.06;5003574;28;7212;-66
2023/08/22 07:52:09;;;;;;;;;;;;;;;29.85;44.44;94743.59;5017622;28;9037;-65
2023/08/22 07:54:37;;;;;;;;;;;;;;;29.86;44.17;94745.13;4988604;28;7594;-66
2023/08/22 07:57:07;;;;;;;;;;;;;;;29.85;44.29;94738.81;5007343;28;7231;-66
2023/08/22 07:59:35;;;;;;;;;;;;;;;29.89;43.52;94744.78;5006420;28;8708;-66
2023/08/22 08:02:08;;;;;;;;;;;;;;;29.88;43.49;94743.31;5012775;28;9207;-66
2023/08/22 08:04:52;;;;;;;;;;;;;;;29.86;43.87;94753.44;5013968;28;10451;-66
2023/08/22 08:07:57;;;;;;;;;;;;;;;29.88;43.27;94746.06;5002191;28;7171;-66
2023/08/22 08:10:36;;;;;;;;;;;;;;;29.84;44.11;94740.06;5024776;28;7238;-66
2023/08/22 08:13:06;;;;;;;;;;;;;;;29.86;44.38;94745.88;5006851;28;7123;-66
2023/08/22 08:15:35;;;;;;;;;;;;;;;29.84;44.37;94742.84;5010759;28;9729;-62
2023/08/22 08:18:01;;;;;;;;;;;;;;;29.87;44.60;94755.66;5009882;28;7512;-62
2023/08/22 08:20:59;;;;;;;;;;;;;;;29.89;43.52;94749.56;5014141;28;9292;-63
2023/08/22 08:23:29;;;;;;;;;;;;;;;29.89;43.28;94744.78;5026625;28;7217;-62
2023/08/22 08:25:57;;;;;;;;;;;;;;;29.90;43.55;94746.28;5014220;28;7249;-62
2023/08/22 08:28:41;;;;;;;;;;;;;;;29.90;43.97;94751.84;5001494;28;7053;-62
2023/08/22 08:31:20;;;;;;;;;;;;;;;29.90;43.44;94742.78;5014180;28;7345;-62
2023/08/22 08:33:47;;;;;;;;;;;;;;;29.90;44.02;94751.09;5009603;28;9218;-62
2023/08/22 08:36:39;;;;;;;;;;;;;;;29.93;43.84;94750.75;5013510;28;9044;-62
2023/08/22 08:39:07;;;;;;;;;;;;;;;29.95;43.90;94744.69;5027071;28;9634;-62
2023/08/22 08:41:58;;;;;;;;;;;;;;;29.93;44.63;94741.72;5011370;28;9061;-62
2023/08/22 08:44:36;;;;;;;;;;;;;;;29.94;43.97;94746.72;5006243;28;9145;-61
2023/08/22 08:47:03;;;;;;;;;;;;;;;29.95;43.87;94741.94;5018670;28;7217;-62
2023/08/22 08:49:37;;;;;;;;;;;;;;;29.96;43.22;94743.41;5011567;28;7396;-61
2023/08/22 08:52:08;;;;;;;;;;;;;;;29.93;43.76;94745.22;5024557;28;7164;-62
2023/08/22 08:54:35;;;;;;;;;;;;;;;29.97;44.05;94747.69;5018915;28;9264;-62
2023/08/22 08:57:03;;;;;;;;;;;;;;;29.96;44.44;94743.41;5031177;28;7054;-62
2023/08/22 08:59:41;;;;;;;;;;;;;;;29.95;44.17;94739.88;5015757;28;7136;-62
2023/08/22 09:02:22;;;;;;;;;;;;;;;29.98;44.04;94741.59;5007255;28;7005;-62
2023/08/22 09:04:51;;;;;;;;;;;;;;;29.97;43.79;94740.09;5030930;28;7235;-62
2023/08/22 09:07:25;;;;;;;;;;;;;;;29.99;43.42;94737.56;4998610;28;7210;-62
2023/08/22 09:10:02;;;;;;;;;;;;;;;29.98;43.45;94735.31;5036155;28;9158;-62
2023/08/22 09:12:40;;;;;;;;;;;;;;;30.00;43.21;94730.72;5012921;28;9110;-62
2023/08/22 09:15:23;;;;;;;;;;;;;;;29.98;43.79;94727.72;5010649;28;9170;-62
2023/08/22 09:17:48;;;;;;;;;;;;;;;30.00;43.96;94730.72;5022925;28;7189;-62
2023/08/22 09:20:19;;;;;;;;;;;;;;;30.02;43.19;94730.94;5011957;28;8538;-62
2023/08/22 09:23:07;;;;;;;;;;;;;;;30.03;44.33;94726.13;5023211;28;6998;-62
2023/08/22 09:25:39;;;;;;;;;;;;;;;30.03;43.64;94729.66;5003131;28;7217;-66
2023/08/22 09:28:38;;;;;;;;;;;;;;;30.04;43.49;94724.84;5015941;28;7683;-66
2023/08/22 09:31:23;;;;;;;;;;;;;;;30.03;43.38;94732.44;4972927;28;8887;-66
2023/08/22 09:34:14;;;;;;;;;;;;;;;30.04;43.68;94728.38;4979579;28;7263;-65
2023/08/22 09:36:47;;;;;;;;;;;;;;;30.06;44.00;94723.03;4955516;28;7419;-66
2023/08/22 09:39:29;;;;;;;;;;;;;;;30.09;43.86;94729.56;4951084;28;8750;-66
2023/08/22 09:42:00;;;;;;;;;;;;;;;30.10;43.37;94725.50;4955207;28;9121;-66
2023/08/22 09:44:32;;;;;;;;;;;;;;;30.11;43.71;94727.75;4971296;28;8846;-66
2023/08/22 09:46:58;;;;;;;;;;;;;;;30.12;43.11;94728.50;4963941;28;9152;-66
2023/08/22 09:49:24;;;;;;;;;;;;;;;30.14;43.41;94725.94;4941394;28;7505;-66
2023/08/22 09:52:07;;;;;;;;;;;;;;;30.11;44.11;94722.19;4945987;28;6986;-67
2023/08/22 09:54:54;;;;;;;;;;;;;;;30.15;42.95;94725.38;4966556;28;9066;-65
2023/08/22 09:57:36;;;;;;;;;;;;;;;30.15;43.51;94716.31;4970453;28;6983;-66
2023/08/22 10:00:32;;;;;;;;;;;;;;;30.15;43.24;94722.63;4969666;28;7434;-66
2023/08/22 10:03:04;;;;;;;;;;;;;;;30.17;43.60;94722.06;4913920;29;9629;-66
2023/08/22 10:05:54;;;;;;;;;;;;;;;30.16;43.43;94726.91;4891019;29;6971;-66
2023/08/22 10:08:30;;;;;;;;;;;;;;;30.17;44.38;94725.59;4946596;28;9032;-66
2023/08/22 10:10:59;;;;;;;;;;;;;;;30.14;43.56;94721.13;4922587;29;7089;-65
2023/08/22 10:13:37;;;;;;;;;;;;;;;30.13;43.82;94714.09;4935434;28;7235;-66
2023/08/22 10:16:40;;;;;;;;;;;;;;;30.14;43.47;94718.38;4934287;28;9563;-66
2023/08/22 10:19:08;;;;;;;;;;;;;;;30.09;43.95;94710.88;4945174;28;7329;-66
2023/08/22 10:21:46;;;;;;;;;;;;;;;30.06;43.39;94711.94;4941840;28;6981;-66
2023/08/22 10:24:26;;;;;;;;;;;;;;;30.09;44.12;94710.13;4927224;29;9275;-66
2023/08/22 10:27:14;;;;;;;;;;;;;;;30.10;44.83;94708.88;4939261;28;9275;-66
2023/08/22 10:30:14;;;;;;;;;;;;;;;30.08;45.02;94706.59;4926922;28;7121;-66
2023/08/22 10:32:41;;;;;;;;;;;;;;;30.07;44.60;94699.56;4945075;28;7104;-66
2023/08/22 10:35:17;;;;;;;;;;;;;;;30.05;44.96;94702.13;4925156;29;7813;-62
2023/08/22 10:37:53;;;;;;;;;;;;;;;30.05;44.63;94707.69;4950169;28;7115;-62
2023/08/22 10:40:27;;;;;;;;;;;;;;;30.05;45.27;94702.13;4998124;28;7237;-62
2023/08/22 10:43:10;;;;;;;;;;;;;;;30.07;45.47;94696.81;5023028;28;6983;-62
2023/08/22 10:45:40;;;;;;;;;;;;;;;30.09;44.52;94694.25;5004799;28;8768;-62
2023/08/22 10:48:46;;;;;;;;;;;;;;;30.05;44.77;94696.59;5023857;28;7208;-62
2023/08/22 10:51:13;;;;;;;;;;;;;;;30.07;45.06;94691.25;4989614;28;8721;-62
2023/08/22 10:53:46;;;;;;;;;;;;;;;30.04;44.78;94686.75;4985543;28;7331;-62
2023/08/22 10:56:30;;;;;;;;;;;;;;;30.10;45.12;94695.72;4986754;28;7349;-63
2023/08/22 10:59:02;;;;;;;;;;;;;;;30.14;45.22;94692.66;4996996;28;7189;-63
2023/08/22 11:01:30;;;;;;;;;;;;;;;30.15;44.89;94694.13;5000125;28;9063;-63
2023/08/22 11:03:59;;;;;;;;;;;;;;;30.13;44.77;94700.22;4982168;28;7232;-63
2023/08/22 11:06:43;;;;;;;;;;;;;;;30.09;45.31;94685.16;5000083;28;7082;-63
2023/08/22 11:09:11;;;;;;;;;;;;;;;30.13;44.40;94691.13;4985330;28;9382;-63
2023/08/22 11:12:21;;;;;;;;;;;;;;;30.14;44.52;94679.53;4983322;28;7033;-63
2023/08/22 11:15:18;;;;;;;;;;;;;;;30.14;45.53;94682.28;4947049;29;9226;-63
2023/08/22 11:17:49;;;;;;;;;;;;;;;30.13;44.28;94675.25;4906914;29;7183;-63
2023/08/22 11:20:20;;;;;;;;;;;;;;;30.15;44.82;94681.00;4928508;29;7321;-62
2023/08/22 11:22:56;;;;;;;;;;;;;;;30.15;44.60;94683.03;4929885;29;9088;-62
2023/08/22 11:25:24;;;;;;;;;;;;;;;30.16;45.50;94674.19;4934012;29;7239;-63
2023/08/22 11:27:56;;;;;;;;;;;;;;;30.17;45.25;94670.13;4912527;29;7218;-63
2023/08/22 11:30:26;;;;;;;;;;;;;;;30.18;44.92;94668.84;4914342;29;9263;-63
2023/08/22 11:33:20;;;;;;;;;;;;;;;30.20;44.97;94669.06;4919013;29;7282;-63
2023/08/22 11:35:56;;;;;;;;;;;;;;;30.21;44.57;94670.53;4914849;29;7001;-63
2023/08/22 11:38:22;;;;;;;;;;;;;;;30.20;44.82;94666.28;4916063;29;7172;-63
2023/08/22 11:41:10;;;;;;;;;;;;;;;30.22;44.99;94672.03;4918903;29;7200;-63
2023/08/22 11:43:45;;;;;;;;;;;;;;;30.22;45.24;94668.50;4931213;29;9209;-63
2023/08/22 11:46:13;;;;;;;;;;;;;;;30.22;45.46;94665.72;4930961;29;8579;-61
2023/08/22 11:48:52;;;;;;;;;;;;;;;30.26;45.21;94666.91;4923978;29;6944;-61
2023/08/22 11:51:22;;;;;;;;;;;;;;;30.26;44.24;94660.59;4946678;28;9100;-61
2023/08/22 11:53:48;;;;;;;;;;;;;;;30.29;44.84;94665.84;4993908;28;9012;-61
2023/08/22 11:56:20;;;;;;;;;;;;;;;30.28;44.85;94664.34;5006165;28;8817;-62
2023/08/22 11:58:54;;;;;;;;;;;;;;;30.32;44.38;94661.28;5005675;28;8358;-61
2023/08/22 12:01:38;;;;;;;;;;;;;;;30.31;44.23;94663.31;4997307;28;7245;-61
2023/08/22 12:04:08;;;;;;;;;;;;;;;30.31;44.30;94666.09;5006517;28;7354;-61
2023/08/22 12:07:00;;;;;;;;;;;;;;;30.30;44.87;94650.69;5010348;28;9327;-62
2023/08/22 12:09:37;;;;;;;;;;;;;;;30.37;45.07;94661.16;5001517;28;7342;-62
2023/08/22 12:12:15;;;;;;;;;;;;;;;30.34;45.25;94656.66;5015660;28;7379;-62
2023/08/22 12:14:53;;;;;;;;;;;;;;;30.34;45.02;94653.91;5010471;28;9407;-62
2023/08/22 12:17:19;;;;;;;;;;;;;;;30.37;44.40;94655.59;5028349;28;8447;-62
2023/08/22 12:19:56;;;;;;;;;;;;;;;30.39;44.06;94650.25;5013979;28;7062;-62
2023/08/22 12:22:24;;;;;;;;;;;;;;;30.41;45.10;94646.94;5007437;28;7502;-62
2023/08/22 12:25:07;;;;;;;;;;;;;;;30.46;45.09;94651.63;5008342;28;7223;-62
2023/08/22 12:27:39;;;;;;;;;;;;;;;30.49;44.41;94650.56;5009192;28;7484;-61
2023/08/22 12:30:07;;;;;;;;;;;;;;;30.49;44.75;94645.75;5037961;28;8860;-61
2023/08/22 12:33:03;;;;;;;;;;;;;;;30.50;44.11;94652.06;5000806;28;7218;-61
2023/08/22 12:35:39;;;;;;;;;;;;;;;30.52;43.85;94646.72;5007318;28;8810;-61
2023/08/22 12:38:07;;;;;;;;;;;;;;;30.53;44.55;94646.19;5019108;28;6995;-61
2023/08/22 12:40:35;;;;;;;;;;;;;;;30.59;43.83;94645.31;5007483;28;9111;-61
2023/08/22 12:43:07;;;;;;;;;;;;;;;30.60;44.73;94644.78;4999321;28;7210;-62
2023/08/22 12:45:34;;;;;;;;;;;;;;;30.61;43.98;94639.97;5002638;28;7260;-61
2023/08/22 12:48:05;;;;;;;;;;;;;;;30.62;43.83;94647.00;5028297;28;7357;-61
2023/08/22 12:50:33;;;;;;;;;;;;;;;30.62;44.32;94647.75;5009203;28;8743;-62
2023/08/22 12:52:59;;;;;;;;;;;;;;;30.63;44.42;94640.91;5011125;28;7313;-61
2023/08/22 12:55:27;;;;;;;;;;;;;;;30.65;43.51;94635.56;5017440;28;7740;-62
2023/08/22 12:57:57;;;;;;;;;;;;;;;30.66;44.12;94634.28;5010856;28;7947;-61
2023/08/22 13:00:30;;;;;;;;;;;;;;;30.66;44.36;94634.28;5036035;28;7187;-61
2023/08/22 13:03:02;;;;;;;;;;;;;;;30.66;43.57;94625.22;5009581;28;6997;-61
2023/08/22 13:05:35;;;;;;;;;;;;;;;30.72;43.80;94620.28;5003133;28;8705;-62
2023/08/22 13:08:49;;;;;;;;;;;;;;;30.74;43.32;94626.78;5027003;28;9483;-61
2023/08/22 13:11:19;;;;;;;;;;;;;;;30.73;43.62;94614.19;5025353;28;7001;-61
2023/08/22 13:14:19;;;;;;;;;;;;;;;30.75;44.09;94628.28;5013728;28;9184;-61
2023/08/22 13:16:58;;;;;;;;;;;;;;;30.75;44.14;94624.75;5014591;28;7258;-61
2023/08/22 13:19:24;;;;;;;;;;;;;;;30.75;43.84;94622.72;5012709;28;7201;-62
2023/08/22 13:22:24;;;;;;;;;;;;;;;30.78;43.48;94620.88;5004999;28;7103;-61
2023/08/22 13:25:18;;;;;;;;;;;;;;;30.79;43.23;94617.59;4985892;28;7233;-61
2023/08/22 13:27:57;;;;;;;;;;;;;;;30.79;44.53;94611.28;4990560;28;7239;-62
2023/08/22 13:30:37;;;;;;;;;;;;;;;30.80;43.65;94607.94;4972880;28;7071;-62
2023/08/22 13:33:04;;;;;;;;;;;;;;;30.80;43.89;94601.69;4990788;28;8856;-62
2023/08/22 13:35:39;;;;;;;;;;;;;;;30.83;44.19;94603.34;4970397;28;7238;-62
2023/08/22 13:38:12;;;;;;;;;;;;;;;30.82;43.95;94597.03;4991048;28;6990;-62
2023/08/22 13:41:10;;;;;;;;;;;;;;;30.83;44.69;94598.56;4986025;28;8710;-61
2023/08/22 13:43:47;;;;;;;;;;;;;;;30.87;44.00;94593.44;4951686;28;8824;-61